Kezdőlap
METAR-TAF:

METAR-TAF

Repülőterek :

New Bedford, Massachusetts, Amerikai Egyesült Államok

földrajzi szélesség: 41-40-31N, földrajzi hosszúság: 070-57-25W, magasság: 24 m

Jelenlegi meteorológiai megfigyelések

A jelentés 35 perccel ezelõtt készült, 17:53 UTC
Délnyugati szél 13 kt széllökések: 22 kt
Hőmérséklet 11°C
Páratartalom 30%
Légköri nyomás 1019 hPa
Látótávolság: 16.1 km
Derült ég

METAR: KEWB 231753Z 22013G22KT 10SM CLR 11/M06 A3010 RMK AO2 SLP195 T01061056 10111 21050 58024

Idő: 13:28 (18:28 UTC)


TAF: hiányzik

Meteorológiai megfigyelések és előrejelzések több, mint 4000 repülőtéren (METAR és TAF jelentéseket).

A térképen piros és sárga pontok jelzik az elérhető meteorológiai állomásokat.

Mozgassa az egeret a pont fölött, hogy megjelenjen az állomás neve.

Azután kattintson az időjárási megfigyelések és előrejelzések megtekintéséhez.

A térkép megváltoztatása: kattintson a fekete keresztel jelölt zöld gombra ráközelítéshez, a vonallal jelölt zöld gombra távolításhoz, vagy a zöld nyilakra a szomszédos térképek eléréséhez.


METAR-TAF: